Time;durP1;ratioP1;P1;durP2;ratioP2;P2;SDS_P1;SDS_P2;PMS_P1;PMS_P2;Temp;Humidity;BMP_temperature;BMP_pressure;BME280_temperature;BME280_humidity;BME280_pressure;Samples;Min_cycle;Max_cycle;Signal;HPM_P1;HPM_P2
2022/03/11 00:02:04;;;;;;;13.68;5.60;;;7.20;46.80;;;;;;4939697;29;20422;-72
2022/03/11 00:04:30;;;;;;;4.53;4.13;;;7.20;47.00;;;;;;4933847;29;20046;-71
2022/03/11 00:06:57;;;;;;;5.07;4.53;;;7.00;47.30;;;;;;4937406;29;20052;-71
2022/03/11 00:09:23;;;;;;;6.70;4.03;;;7.00;47.40;;;;;;4938154;29;20027;-71
2022/03/11 00:11:50;;;;;;;5.35;4.10;;;7.00;47.50;;;;;;4936749;29;20043;-71
2022/03/11 00:14:16;;;;;;;5.53;4.97;;;6.90;47.80;;;;;;4937688;29;20513;-71
2022/03/11 00:16:42;;;;;;;8.38;5.05;;;6.90;47.70;;;;;;4936917;29;20044;-72
2022/03/11 00:19:08;;;;;;;9.77;5.50;;;7.20;47.20;;;;;;4937743;29;20309;-71
2022/03/11 00:21:35;;;;;;;6.35;5.07;;;7.20;47.20;;;;;;4935928;29;20366;-71
2022/03/11 00:24:01;;;;;;;13.50;4.90;;;7.30;47.10;;;;;;4937474;29;20035;-72
2022/03/11 00:26:27;;;;;;;5.60;4.68;;;7.10;47.40;;;;;;4937159;29;20063;-72
2022/03/11 00:28:53;;;;;;;6.63;4.78;;;6.90;47.80;;;;;;4936173;29;20036;-71
2022/03/11 00:31:20;;;;;;;5.88;5.28;;;6.80;48.20;;;;;;4934755;29;20106;-71
2022/03/11 00:33:46;;;;;;;6.20;5.60;;;6.80;48.20;;;;;;4931777;29;20036;-71
2022/03/11 00:36:12;;;;;;;6.60;4.95;;;6.90;48.20;;;;;;4937121;29;20042;-71
2022/03/11 00:38:38;;;;;;;7.15;4.63;;;7.00;48.10;;;;;;4937851;29;20057;-72
2022/03/11 00:41:04;;;;;;;12.05;4.82;;;6.90;48.20;;;;;;4931147;29;20542;-71
2022/03/11 00:43:30;;;;;;;6.38;4.55;;;6.90;48.30;;;;;;4932618;29;20124;-71
2022/03/11 00:45:57;;;;;;;6.35;5.28;;;7.00;48.10;;;;;;4935717;29;20508;-71
2022/03/11 00:48:24;;;;;;;5.85;4.82;;;7.00;48.20;;;;;;4936877;29;20394;-71
2022/03/11 00:50:50;;;;;;;7.45;4.60;;;7.20;47.80;;;;;;4936058;29;20023;-71
2022/03/11 00:53:16;;;;;;;6.32;5.13;;;7.20;47.70;;;;;;4932048;29;20028;-71
2022/03/11 00:55:42;;;;;;;8.93;5.13;;;7.20;48.00;;;;;;4930421;29;20051;-71
2022/03/11 00:58:08;;;;;;;7.30;5.32;;;7.10;48.20;;;;;;4934713;29;20481;-70
2022/03/11 01:00:36;;;;;;;8.45;5.97;;;7.00;48.40;;;;;;4936273;29;20039;-71
2022/03/11 01:03:02;;;;;;;9.32;5.90;;;7.00;48.30;;;;;;4935857;29;20050;-71
2022/03/11 01:05:28;;;;;;;5.32;4.53;;;7.00;48.10;;;;;;4934501;29;20035;-71
2022/03/11 01:07:56;;;;;;;6.68;4.45;;;7.00;48.50;;;;;;4935833;29;20047;-71
2022/03/11 01:10:23;;;;;;;7.35;5.80;;;6.90;48.60;;;;;;4936225;29;20043;-72
2022/03/11 01:12:49;;;;;;;14.98;6.93;;;7.00;48.40;;;;;;4934222;29;20032;-71
2022/03/11 01:15:15;;;;;;;7.03;5.50;;;7.00;48.60;;;;;;4936364;29;20039;-71
2022/03/11 01:17:41;;;;;;;6.40;5.20;;;7.00;48.50;;;;;;4935526;29;20051;-74
2022/03/11 01:20:10;;;;;;;8.05;6.43;;;6.90;48.60;;;;;;4936331;29;20042;-72
2022/03/11 01:22:36;;;;;;;5.30;4.80;;;6.90;48.70;;;;;;4934337;29;20044;-71
2022/03/11 01:25:04;;;;;;;6.65;6.00;;;6.80;48.90;;;;;;4936249;29;20035;-71
2022/03/11 01:27:31;;;;;;;7.00;4.90;;;6.80;48.80;;;;;;4933556;29;20035;-71
2022/03/11 01:29:57;;;;;;;8.50;5.63;;;6.80;48.90;;;;;;4935162;29;20032;-72
2022/03/11 01:32:23;;;;;;;7.97;6.22;;;6.70;49.00;;;;;;4918272;29;20036;-72
2022/03/11 01:34:49;;;;;;;11.80;5.63;;;6.70;49.20;;;;;;4935970;29;20396;-72
2022/03/11 01:37:16;;;;;;;7.82;6.82;;;6.50;49.70;;;;;;4935938;29;20035;-72
2022/03/11 01:39:42;;;;;;;8.77;6.07;;;6.10;50.50;;;;;;4935139;29;20032;-72
2022/03/11 01:42:10;;;;;;;7.13;5.03;;;5.80;51.30;;;;;;4933371;29;20035;-71
2022/03/11 01:44:36;;;;;;;7.50;5.38;;;5.60;51.70;;;;;;4936072;29;20488;-72
2022/03/11 01:47:03;;;;;;;5.72;5.13;;;5.60;51.90;;;;;;4934349;29;20038;-72
2022/03/11 01:49:29;;;;;;;6.15;5.13;;;5.70;51.80;;;;;;4933473;29;20484;-72
2022/03/11 01:51:55;;;;;;;8.23;5.60;;;5.60;51.90;;;;;;4933949;29;20043;-71
2022/03/11 01:54:21;;;;;;;5.85;5.25;;;5.50;52.20;;;;;;4935913;29;20031;-72
2022/03/11 01:56:48;;;;;;;9.55;5.70;;;5.40;52.40;;;;;;4935060;29;20036;-72
2022/03/11 01:59:14;;;;;;;17.30;6.60;;;5.40;52.60;;;;;;4932600;29;20040;-72
2022/03/11 02:01:40;;;;;;;7.05;5.85;;;5.50;52.60;;;;;;4931925;29;20119;-71
2022/03/11 02:04:06;;;;;;;7.28;5.70;;;5.30;53.20;;;;;;4931531;29;20043;-72
2022/03/11 02:06:33;;;;;;;11.38;5.47;;;5.00;53.60;;;;;;4934773;29;20051;-72
2022/03/11 02:09:01;;;;;;;6.28;5.43;;;4.80;54.20;;;;;;4934461;29;20063;-71
2022/03/11 02:11:27;;;;;;;5.72;5.07;;;4.50;55.00;;;;;;4934327;29;20040;-71
2022/03/11 02:13:59;;;;;;;7.82;5.70;;;4.20;55.70;;;;;;4933390;29;20473;-71
2022/03/11 02:16:31;;;;;;;6.72;5.22;;;4.00;56.20;;;;;;4935095;29;20488;-71
2022/03/11 02:18:58;;;;;;;8.98;5.47;;;3.80;56.80;;;;;;4935207;29;20044;-71
2022/03/11 02:21:27;;;;;;;17.70;5.95;;;3.60;57.50;;;;;;4934353;29;20382;-71
2022/03/11 02:24:00;;;;;;;8.05;5.95;;;3.40;58.40;;;;;;4934988;29;20047;-71
2022/03/11 02:26:28;;;;;;;9.00;5.18;;;3.10;58.80;;;;;;4934679;29;20032;-71
2022/03/11 02:28:57;;;;;;;9.35;5.03;;;2.90;59.50;;;;;;4934656;29;20070;-71
2022/03/11 02:31:24;;;;;;;11.02;6.38;;;2.90;60.00;;;;;;4929662;29;20031;-71
2022/03/11 02:33:50;;;;;;;8.95;6.18;;;2.80;60.60;;;;;;4934843;29;20040;-71
2022/03/11 02:36:18;;;;;;;6.93;5.30;;;2.70;61.10;;;;;;4935129;29;20031;-71
2022/03/11 02:38:45;;;;;;;5.97;4.65;;;2.70;61.00;;;;;;4936372;29;20398;-71
2022/03/11 02:41:11;;;;;;;5.43;4.68;;;2.60;60.80;;;;;;4933677;29;20035;-71
2022/03/11 02:43:38;;;;;;;7.35;5.80;;;2.50;61.20;;;;;;4931923;29;20044;-71
2022/03/11 02:46:04;;;;;;;7.13;5.80;;;2.30;61.60;;;;;;4934434;29;20024;-71
2022/03/11 02:48:30;;;;;;;5.88;4.93;;;2.20;62.20;;;;;;4934546;29;20063;-71
2022/03/11 02:50:57;;;;;;;6.95;5.90;;;2.00;62.80;;;;;;4933223;29;20054;-71
2022/03/11 02:53:23;;;;;;;6.72;4.82;;;1.90;63.50;;;;;;4934710;29;20035;-70
2022/03/11 02:55:49;;;;;;;9.50;5.60;;;1.80;64.00;;;;;;4933888;29;20027;-70
2022/03/11 02:58:16;;;;;;;5.47;4.93;;;1.60;64.40;;;;;;4935275;29;20445;-71
2022/03/11 03:00:42;;;;;;;7.93;5.88;;;1.50;65.00;;;;;;4934106;29;20042;-71
2022/03/11 03:03:08;;;;;;;8.93;5.22;;;1.50;65.40;;;;;;4929199;29;20166;-71
2022/03/11 03:05:34;;;;;;;5.25;4.68;;;1.40;65.60;;;;;;4931846;29;20488;-71
2022/03/11 03:08:01;;;;;;;10.43;6.25;;;1.40;65.70;;;;;;4931625;29;20411;-72
2022/03/11 03:10:27;;;;;;;8.27;5.00;;;1.40;65.60;;;;;;4933342;29;20571;-72
2022/03/11 03:12:55;;;;;;;7.57;5.32;;;1.40;65.60;;;;;;4932711;29;20043;-71
2022/03/11 03:15:21;;;;;;;8.15;6.25;;;1.30;65.90;;;;;;4930902;29;20031;-71
2022/03/11 03:17:47;;;;;;;6.60;5.90;;;1.20;65.90;;;;;;4930176;29;20393;-71
2022/03/11 03:20:14;;;;;;;6.68;6.00;;;1.10;66.10;;;;;;4933568;29;20035;-71
2022/03/11 03:22:40;;;;;;;10.15;7.07;;;1.00;66.30;;;;;;4928026;29;20044;-71
2022/03/11 03:25:09;;;;;;;7.35;5.63;;;0.90;67.10;;;;;;4930279;29;20039;-71
2022/03/11 03:27:36;;;;;;;9.13;6.32;;;0.80;67.50;;;;;;4933861;29;20054;-71
2022/03/11 03:30:05;;;;;;;8.95;6.32;;;0.80;67.90;;;;;;4929478;29;20040;-71
2022/03/11 03:32:32;;;;;;;8.85;6.00;;;0.70;68.20;;;;;;4933542;29;20034;-71
2022/03/11 03:34:58;;;;;;;8.35;5.93;;;0.60;68.70;;;;;;4930440;29;20696;-72
2022/03/11 03:37:24;;;;;;;8.82;7.82;;;0.50;69.20;;;;;;4929837;29;20032;-72
2022/03/11 03:39:51;;;;;;;10.95;8.52;;;1.30;67.80;;;;;;4934386;29;20458;-71
2022/03/11 03:42:17;;;;;;;11.38;8.80;;;2.30;64.80;;;;;;4937036;29;20042;-72
2022/03/11 03:44:43;;;;;;;13.73;9.85;;;2.70;62.50;;;;;;4937890;29;20039;-72
2022/03/11 03:47:09;;;;;;;9.77;8.77;;;3.20;60.70;;;;;;4928141;29;20043;-71
2022/03/11 03:49:35;;;;;;;10.50;8.32;;;3.10;60.40;;;;;;4930210;29;20035;-72
2022/03/11 03:52:02;;;;;;;11.57;9.05;;;2.90;61.00;;;;;;4926758;29;20481;-72
2022/03/11 03:54:28;;;;;;;9.77;7.38;;;2.60;61.70;;;;;;4933894;29;20059;-72
2022/03/11 03:56:54;;;;;;;10.40;8.60;;;2.30;62.60;;;;;;4932954;29;20032;-72
2022/03/11 03:59:21;;;;;;;12.63;9.32;;;2.10;63.90;;;;;;4933732;29;20042;-73
2022/03/11 04:01:47;;;;;;;9.93;8.82;;;2.40;63.20;;;;;;4930387;29;20748;-70
2022/03/11 04:04:13;;;;;;;9.18;7.50;;;2.80;61.60;;;;;;4916976;29;20385;-71
2022/03/11 04:06:42;;;;;;;10.38;8.13;;;2.60;61.60;;;;;;4933864;29;20391;-71
2022/03/11 04:09:09;;;;;;;8.27;7.20;;;2.30;62.50;;;;;;4914348;29;20048;-71
2022/03/11 04:11:36;;;;;;;8.30;7.40;;;2.00;63.70;;;;;;4930021;29;20035;-71
2022/03/11 04:14:03;;;;;;;9.45;8.05;;;1.80;64.70;;;;;;4933501;29;20032;-73
2022/03/11 04:16:31;;;;;;;13.68;8.77;;;1.80;64.70;;;;;;4939767;29;20031;-72
2022/03/11 04:18:57;;;;;;;15.00;10.40;;;2.00;64.30;;;;;;4936078;29;20046;-71
2022/03/11 04:21:23;;;;;;;10.13;7.90;;;2.80;61.50;;;;;;4932891;29;20027;-71
2022/03/11 04:23:50;;;;;;;10.43;8.80;;;2.70;61.30;;;;;;4933371;29;20039;-73
2022/03/11 04:26:17;;;;;;;13.20;7.57;;;2.40;62.30;;;;;;4926721;29;20032;-73
2022/03/11 04:28:44;;;;;;;8.43;7.38;;;2.00;63.30;;;;;;4934368;29;20048;-73
2022/03/11 04:31:12;;;;;;;11.52;9.15;;;1.70;64.70;;;;;;4930649;29;20031;-73
2022/03/11 04:33:40;;;;;;;11.90;9.48;;;1.60;65.00;;;;;;4936954;29;20048;-73
2022/03/11 04:36:07;;;;;;;8.95;7.85;;;1.70;64.70;;;;;;4936333;29;20050;-73
2022/03/11 04:38:33;;;;;;;9.05;8.15;;;1.70;64.70;;;;;;4936865;29;20145;-73
2022/03/11 04:41:00;;;;;;;12.25;8.40;;;1.60;64.70;;;;;;4933092;29;20058;-73
2022/03/11 04:43:27;;;;;;;9.85;8.90;;;1.80;64.40;;;;;;4937184;29;20043;-73
2022/03/11 04:45:54;;;;;;;12.23;9.52;;;1.70;64.40;;;;;;4936264;29;20031;-73
2022/03/11 04:48:20;;;;;;;10.00;8.80;;;1.80;64.40;;;;;;4937078;29;20051;-73
2022/03/11 04:50:47;;;;;;;11.27;9.02;;;2.40;62.10;;;;;;4931601;29;20043;-75
2022/03/11 04:53:13;;;;;;;13.68;9.57;;;2.70;60.70;;;;;;4931817;29;20036;-73
2022/03/11 04:55:39;;;;;;;13.13;11.25;;;2.60;60.50;;;;;;4929599;29;20133;-73
2022/03/11 04:58:05;;;;;;;14.80;11.50;;;2.60;60.80;;;;;;4936497;29;20078;-73
2022/03/11 05:00:31;;;;;;;14.48;9.85;;;2.50;60.90;;;;;;4936126;29;20035;-73
2022/03/11 05:02:58;;;;;;;11.80;9.88;;;2.40;61.30;;;;;;4935891;29;20384;-73
2022/03/11 05:05:25;;;;;;;11.70;10.40;;;2.20;61.60;;;;;;4936239;29;20508;-73
2022/03/11 05:07:52;;;;;;;11.85;10.60;;;1.90;62.30;;;;;;4935648;29;20418;-73
2022/03/11 05:10:18;;;;;;;11.07;9.98;;;1.70;63.20;;;;;;4931358;29;20059;-73
2022/03/11 05:12:45;;;;;;;15.70;10.10;;;1.40;63.90;;;;;;4936430;29;20032;-73
2022/03/11 05:15:12;;;;;;;9.82;8.93;;;1.20;64.80;;;;;;4935610;29;20058;-73
2022/03/11 05:17:38;;;;;;;10.98;9.52;;;1.10;65.30;;;;;;4936090;29;20050;-73
2022/03/11 05:20:05;;;;;;;9.35;8.10;;;1.00;65.70;;;;;;4929957;29;20041;-74
2022/03/11 05:22:32;;;;;;;13.82;8.57;;;0.80;66.50;;;;;;4900008;29;20044;-73
2022/03/11 05:24:58;;;;;;;16.63;9.65;;;0.60;67.10;;;;;;4929782;29;20036;-73
2022/03/11 05:27:25;;;;;;;11.27;9.27;;;0.60;67.20;;;;;;4932869;29;20083;-73
2022/03/11 05:29:51;;;;;;;10.25;7.95;;;0.50;68.00;;;;;;4932302;29;20036;-73
2022/03/11 05:32:19;;;;;;;10.15;8.75;;;0.30;68.30;;;;;;4934263;29;20032;-73
2022/03/11 05:34:46;;;;;;;15.45;9.32;;;0.20;69.10;;;;;;4936167;29;20043;-73
2022/03/11 05:37:13;;;;;;;9.35;8.40;;;0.10;69.30;;;;;;4932826;29;20054;-74
2022/03/11 05:39:39;;;;;;;11.43;9.40;;;0.10;70.00;;;;;;4933394;29;20508;-72
2022/03/11 05:42:06;;;;;;;19.23;9.85;;;0.00;70.30;;;;;;4932200;29;20036;-73
2022/03/11 05:44:32;;;;;;;9.02;8.15;;;-0.10;70.90;;;;;;4933470;29;20036;-72
2022/03/11 05:46:58;;;;;;;15.45;9.00;;;-0.20;71.30;;;;;;4935074;29;20035;-73
2022/03/11 05:49:25;;;;;;;10.90;9.07;;;-0.30;71.90;;;;;;4935732;29;20042;-72
2022/03/11 05:51:51;;;;;;;10.48;8.52;;;-0.30;72.50;;;;;;4932454;29;20046;-72
2022/03/11 05:54:18;;;;;;;13.35;8.63;;;-0.30;72.60;;;;;;4932344;29;20473;-72
2022/03/11 05:56:44;;;;;;;8.40;7.55;;;-0.40;72.60;;;;;;4930458;29;20043;-72
2022/03/11 05:59:12;;;;;;;9.25;8.05;;;-0.40;73.20;;;;;;4929781;29;20393;-72
2022/03/11 06:01:38;;;;;;;9.68;7.90;;;-0.40;73.50;;;;;;4930305;29;20043;-72
2022/03/11 06:04:04;;;;;;;9.27;7.93;;;-0.40;73.40;;;;;;4934577;29;20481;-72
2022/03/11 06:06:32;;;;;;;13.52;9.95;;;-0.40;73.70;;;;;;4928272;29;20043;-72
2022/03/11 06:08:59;;;;;;;11.23;8.85;;;-0.40;73.90;;;;;;4929633;29;20036;-72
2022/03/11 06:11:27;;;;;;;10.15;8.93;;;-0.30;73.90;;;;;;4934325;29;20047;-72
2022/03/11 06:13:53;;;;;;;10.88;8.50;;;-0.20;73.40;;;;;;4934428;29;20465;-72
2022/03/11 06:16:20;;;;;;;10.93;8.98;;;-0.20;73.00;;;;;;4927952;29;20035;-72
2022/03/11 06:18:46;;;;;;;9.27;8.27;;;-0.10;73.30;;;;;;4930780;29;20043;-71
2022/03/11 06:21:12;;;;;;;10.05;8.85;;;0.00;73.40;;;;;;4933155;29;20023;-72
2022/03/11 06:23:38;;;;;;;13.82;8.65;;;0.00;72.80;;;;;;4934575;29;20040;-72
2022/03/11 06:26:05;;;;;;;11.10;8.68;;;0.20;72.10;;;;;;4933483;29;20032;-72
2022/03/11 06:28:31;;;;;;;12.13;9.30;;;0.20;72.10;;;;;;4934562;29;20047;-72
2022/03/11 06:30:58;;;;;;;10.90;7.68;;;0.20;72.10;;;;;;4933445;29;20397;-72
2022/03/11 06:33:24;;;;;;;13.43;10.50;;;0.30;71.70;;;;;;4934990;29;20040;-72
2022/03/11 06:35:51;;;;;;;10.75;7.70;;;0.40;71.70;;;;;;4930398;29;20023;-72
2022/03/11 06:38:18;;;;;;;12.82;8.07;;;1.10;71.70;;;;;;4934469;29;20043;-72
2022/03/11 06:40:49;;;;;;;11.50;7.97;;;2.00;69.50;;;;;;4933122;29;20486;-70
2022/03/11 06:43:17;;;;;;;12.75;8.55;;;3.40;65.40;;;;;;4934331;29;20039;-70
2022/03/11 06:45:44;;;;;;;11.82;9.82;;;4.80;60.90;;;;;;4934460;29;20386;-71
2022/03/11 06:48:18;;;;;;;9.90;8.30;;;5.80;57.00;;;;;;4934552;29;20489;-71
2022/03/11 06:50:45;;;;;;;23.83;10.45;;;6.40;55.20;;;;;;4932237;29;20040;-71
2022/03/11 06:53:13;;;;;;;26.38;10.52;;;6.70;53.80;;;;;;4930002;29;20036;-71
2022/03/11 06:55:40;;;;;;;20.23;10.57;;;7.20;53.50;;;;;;4931936;29;20061;-71
2022/03/11 06:58:06;;;;;;;11.82;9.13;;;8.00;52.20;;;;;;4924307;29;20455;-71
2022/03/11 07:00:33;;;;;;;13.82;9.50;;;8.70;50.10;;;;;;4933270;29;20051;-71
2022/03/11 07:02:59;;;;;;;11.73;9.13;;;9.40;49.50;;;;;;4934021;29;20036;-71
2022/03/11 07:05:25;;;;;;;14.88;8.65;;;10.40;45.90;;;;;;4934129;29;20040;-72
2022/03/11 07:07:51;;;;;;;13.35;8.10;;;11.30;41.90;;;;;;4933609;29;20453;-72
2022/03/11 07:10:18;;;;;;;13.50;8.43;;;10.80;41.10;;;;;;4925975;29;20054;-72
2022/03/11 07:12:44;;;;;;;11.02;8.40;;;9.40;42.60;;;;;;4934109;29;20097;-71
2022/03/11 07:15:10;;;;;;;11.52;8.63;;;9.80;42.70;;;;;;4933692;29;20031;-72
2022/03/11 07:17:37;;;;;;;11.10;8.00;;;10.00;41.50;;;;;;4934472;29;20032;-72
2022/03/11 07:20:06;;;;;;;11.45;7.38;;;9.20;42.10;;;;;;4932925;29;20042;-72
2022/03/11 07:22:32;;;;;;;10.45;7.93;;;8.50;43.30;;;;;;4933832;29;20035;-72
2022/03/11 07:24:59;;;;;;;9.35;7.70;;;8.90;43.20;;;;;;4929574;29;20032;-73
2022/03/11 07:27:25;;;;;;;11.20;7.88;;;8.80;42.20;;;;;;4934279;29;20068;-71
2022/03/11 07:29:51;;;;;;;10.25;7.63;;;8.40;42.50;;;;;;4932261;29;20031;-72
2022/03/11 07:32:18;;;;;;;11.43;8.05;;;8.00;43.30;;;;;;4929975;29;20050;-70
2022/03/11 07:34:44;;;;;;;8.77;7.65;;;7.70;43.60;;;;;;4933406;29;20034;-70
2022/03/11 07:37:12;;;;;;;9.73;7.28;;;7.50;43.90;;;;;;4933368;29;20461;-70
2022/03/11 07:39:39;;;;;;;10.30;7.65;;;7.70;43.70;;;;;;4933502;29;20101;-72
2022/03/11 07:42:06;;;;;;;12.13;6.82;;;7.40;43.80;;;;;;4927200;29;20028;-70
2022/03/11 07:44:34;;;;;;;10.43;7.70;;;7.20;44.20;;;;;;4934083;29;20035;-70
2022/03/11 07:47:01;;;;;;;9.70;7.38;;;6.90;44.50;;;;;;4929121;29;20032;-76
2022/03/11 07:49:30;;;;;;;7.18;6.38;;;6.90;44.50;;;;;;4916838;29;20482;-71
2022/03/11 07:51:56;;;;;;;9.13;7.43;;;7.00;44.30;;;;;;4932122;29;20104;-71
2022/03/11 07:54:23;;;;;;;9.02;7.53;;;6.80;44.20;;;;;;4933474;29;20038;-70
2022/03/11 07:56:49;;;;;;;7.78;6.78;;;6.60;44.60;;;;;;4932989;29;20051;-71
2022/03/11 07:59:15;;;;;;;8.70;7.03;;;6.70;44.10;;;;;;4933626;29;20492;-70
2022/03/11 08:01:42;;;;;;;7.38;6.35;;;6.90;43.70;;;;;;4932053;29;20043;-70
2022/03/11 08:04:10;;;;;;;9.70;6.53;;;7.30;43.40;;;;;;4936201;29;20031;-71
2022/03/11 08:06:37;;;;;;;11.85;6.63;;;7.40;43.10;;;;;;4937094;29;20055;-71
2022/03/11 08:09:03;;;;;;;9.73;6.47;;;7.40;43.40;;;;;;4936713;29;21646;-70
2022/03/11 08:11:30;;;;;;;8.45;6.20;;;7.60;42.80;;;;;;4927928;29;20044;-70
2022/03/11 08:13:56;;;;;;;8.65;5.55;;;8.50;42.10;;;;;;4936554;29;20059;-71
2022/03/11 08:16:22;;;;;;;8.07;6.47;;;8.90;41.70;;;;;;4937002;29;20366;-70
2022/03/11 08:18:48;;;;;;;9.27;7.18;;;9.30;40.70;;;;;;4936091;29;20393;-71
2022/03/11 08:21:16;;;;;;;7.50;6.57;;;8.80;41.50;;;;;;4935770;29;20047;-70
2022/03/11 08:23:45;;;;;;;9.57;6.97;;;9.40;40.90;;;;;;4937177;29;20070;-70
2022/03/11 08:26:12;;;;;;;11.40;7.45;;;8.90;40.50;;;;;;4935908;29;20131;-71
2022/03/11 08:28:38;;;;;;;9.77;8.18;;;9.30;40.80;;;;;;4937411;29;20039;-71
2022/03/11 08:31:05;;;;;;;10.75;7.65;;;9.60;40.50;;;;;;4930783;29;20039;-71
2022/03/11 08:33:34;;;;;;;15.57;6.50;;;10.30;39.50;;;;;;4935624;29;20096;-70
2022/03/11 08:36:00;;;;;;;8.18;5.72;;;9.10;40.10;;;;;;4936644;29;20027;-70
2022/03/11 08:38:26;;;;;;;8.57;7.30;;;8.50;41.10;;;;;;4934966;29;20027;-70
2022/03/11 08:40:52;;;;;;;9.98;6.15;;;9.00;41.20;;;;;;4931132;29;20032;-71
2022/03/11 08:43:19;;;;;;;8.80;7.05;;;9.50;40.20;;;;;;4918468;29;20047;-71
2022/03/11 08:45:45;;;;;;;8.77;5.90;;;10.00;39.60;;;;;;4935156;29;20047;-71
2022/03/11 08:48:11;;;;;;;9.35;6.22;;;9.50;39.80;;;;;;4929834;29;20389;-71
2022/03/11 08:50:38;;;;;;;8.63;7.47;;;9.60;40.20;;;;;;4935631;29;20051;-72
2022/03/11 08:53:04;;;;;;;11.15;6.55;;;9.50;39.90;;;;;;4936127;29;20048;-71
2022/03/11 08:55:30;;;;;;;10.65;7.45;;;9.80;40.00;;;;;;4936132;29;20452;-72
2022/03/11 08:57:56;;;;;;;9.30;6.47;;;10.30;39.60;;;;;;4933532;29;20047;-71
2022/03/11 09:00:25;;;;;;;11.75;6.03;;;11.20;39.20;;;;;;4934721;29;20039;-72
2022/03/11 09:02:51;;;;;;;7.90;6.65;;;11.10;38.60;;;;;;4935931;29;20035;-72
2022/03/11 09:05:20;;;;;;;7.15;6.43;;;10.00;39.10;;;;;;4934584;29;20043;-71
2022/03/11 09:07:48;;;;;;;12.80;6.70;;;9.10;39.80;;;;;;4936322;29;20489;-70
2022/03/11 09:10:14;;;;;;;7.15;5.95;;;9.20;39.90;;;;;;4935278;29;20039;-71
2022/03/11 09:12:41;;;;;;;7.75;6.60;;;9.70;40.00;;;;;;4933818;29;20039;-70
2022/03/11 09:15:08;;;;;;;7.22;6.50;;;10.10;39.60;;;;;;4934303;29;20031;-71
2022/03/11 09:17:35;;;;;;;8.38;6.57;;;10.80;38.60;;;;;;4936216;29;20040;-70
2022/03/11 09:20:03;;;;;;;11.80;5.60;;;10.70;38.20;;;;;;4934390;29;20032;-70
2022/03/11 09:22:34;;;;;;;7.80;5.80;;;9.90;38.90;;;;;;4933049;29;20047;-70
2022/03/11 09:25:03;;;;;;;9.88;6.50;;;10.00;39.20;;;;;;4928813;29;20044;-71
2022/03/11 09:27:30;;;;;;;9.00;6.75;;;10.60;38.90;;;;;;4932119;29;20047;-70
2022/03/11 09:29:57;;;;;;;9.75;6.63;;;10.50;38.70;;;;;;4932108;29;20469;-71
2022/03/11 09:32:25;;;;;;;7.07;6.38;;;11.10;38.30;;;;;;4934656;29;20529;-73
2022/03/11 09:34:52;;;;;;;8.52;6.20;;;11.30;37.90;;;;;;4935345;29;20028;-72
2022/03/11 09:37:19;;;;;;;10.63;7.05;;;12.10;37.80;;;;;;4930807;29;20406;-71
2022/03/11 09:39:45;;;;;;;9.15;7.57;;;11.90;36.90;;;;;;4934137;29;20035;-71
2022/03/11 09:42:12;;;;;;;11.27;7.07;;;11.60;37.90;;;;;;4934489;29;20024;-71
2022/03/11 09:44:39;;;;;;;8.68;6.45;;;11.20;37.80;;;;;;4934230;29;20044;-71
2022/03/11 09:47:06;;;;;;;8.63;6.55;;;11.60;38.20;;;;;;4916845;29;20039;-71
2022/03/11 09:49:35;;;;;;;8.73;6.15;;;11.80;38.10;;;;;;4932435;29;20039;-71
2022/03/11 09:52:05;;;;;;;9.50;7.07;;;12.90;37.60;;;;;;4933422;29;20038;-71
2022/03/11 09:54:32;;;;;;;8.52;6.68;;;13.20;36.00;;;;;;4935628;29;20043;-71
2022/03/11 09:56:58;;;;;;;11.48;7.07;;;11.70;37.40;;;;;;4934354;29;20369;-70
2022/03/11 09:59:25;;;;;;;11.73;6.28;;;11.10;38.50;;;;;;4935480;29;20039;-71
2022/03/11 10:01:51;;;;;;;7.63;6.35;;;10.50;39.40;;;;;;4934270;29;20040;-70
2022/03/11 10:04:17;;;;;;;8.57;7.18;;;10.40;39.20;;;;;;4931307;29;20486;-71
2022/03/11 10:06:48;;;;;;;11.07;7.32;;;9.90;39.80;;;;;;4934424;29;20043;-71
2022/03/11 10:09:17;;;;;;;8.98;7.03;;;9.20;41.10;;;;;;4933114;29;20035;-71
2022/03/11 10:11:53;;;;;;;9.07;6.78;;;9.30;41.30;;;;;;4930161;29;20031;-71
2022/03/11 10:14:38;;;;;;;7.63;6.22;;;9.70;40.80;;;;;;4934470;29;20036;-71
2022/03/11 10:17:17;;;;;;;11.90;7.00;;;9.80;40.10;;;;;;4931167;29;20043;-71
2022/03/11 10:20:14;;;;;;;14.45;7.50;;;10.30;40.50;;;;;;4929889;29;20472;-71
2022/03/11 10:22:45;;;;;;;11.52;6.70;;;10.30;39.60;;;;;;4917578;29;20059;-71
2022/03/11 10:25:27;;;;;;;8.60;6.53;;;10.00;40.50;;;;;;4929508;29;20028;-71
2022/03/11 10:28:08;;;;;;;10.88;6.88;;;10.00;40.00;;;;;;4934178;29;20039;-72
2022/03/11 10:30:36;;;;;;;;;;;9.90;40.40;;;;;;4931215;29;20035;-75
2022/03/11 10:33:06;;;;;;;8.63;5.88;;;9.90;41.00;;;;;;4934452;29;19914;-70
2022/03/11 10:35:42;;;;;;;6.63;5.93;;;10.00;40.00;;;;;;4934287;29;20036;-70
2022/03/11 10:38:10;;;;;;;7.72;6.45;;;9.30;41.20;;;;;;4934520;29;20032;-70
2022/03/11 10:40:42;;;;;;;9.77;7.05;;;9.30;41.40;;;;;;4929957;29;20520;-70
2022/03/11 10:43:20;;;;;;;7.82;6.40;;;9.30;41.30;;;;;;4933984;29;20035;-70
2022/03/11 10:46:09;;;;;;;12.55;7.30;;;9.20;41.60;;;;;;4931254;29;20040;-70
2022/03/11 10:48:44;;;;;;;10.68;6.75;;;9.30;41.80;;;;;;4922571;29;20051;-70
2022/03/11 10:51:12;;;;;;;18.75;7.72;;;9.60;41.60;;;;;;4932947;29;20050;-70
2022/03/11 10:53:39;;;;;;;9.55;7.05;;;9.80;41.10;;;;;;4930864;29;20478;-69
2022/03/11 10:56:07;;;;;;;11.27;6.57;;;9.70;41.20;;;;;;4933618;29;20035;-70
2022/03/11 10:58:34;;;;;;;11.65;7.30;;;9.60;41.00;;;;;;4934359;29;20043;-70
2022/03/11 11:01:01;;;;;;;10.02;6.63;;;9.70;41.40;;;;;;4931998;29;20059;-70
2022/03/11 11:03:27;;;;;;;9.50;7.68;;;10.00;41.10;;;;;;4933483;29;20405;-71
2022/03/11 11:05:55;;;;;;;8.57;6.53;;;10.20;41.20;;;;;;4933428;29;20043;-71
2022/03/11 11:08:23;;;;;;;10.75;7.68;;;10.30;41.20;;;;;;4928410;29;20036;-70
2022/03/11 11:10:50;;;;;;;11.75;7.63;;;10.50;40.80;;;;;;4932991;29;20040;-71
2022/03/11 11:13:18;;;;;;;9.02;6.40;;;10.70;40.70;;;;;;4930257;29;20114;-71
2022/03/11 11:15:44;;;;;;;11.13;7.90;;;10.60;41.00;;;;;;4927914;29;20422;-71
2022/03/11 11:18:14;;;;;;;8.48;7.18;;;10.50;40.80;;;;;;4917155;29;20047;-71
2022/03/11 11:20:50;;;;;;;10.13;7.75;;;10.70;40.70;;;;;;4924925;29;20044;-71
2022/03/11 11:23:16;;;;;;;11.90;6.85;;;10.60;40.80;;;;;;4931102;29;20027;-71
2022/03/11 11:25:43;;;;;;;13.15;7.97;;;10.70;40.10;;;;;;4934000;29;20044;-71
2022/03/11 11:28:18;;;;;;;8.57;7.68;;;10.70;40.90;;;;;;4933888;29;20040;-71
2022/03/11 11:30:47;;;;;;;10.45;7.60;;;10.60;40.50;;;;;;4928369;29;20043;-71
2022/03/11 11:33:14;;;;;;;7.18;6.40;;;10.90;40.80;;;;;;4932365;29;20054;-71
2022/03/11 11:35:43;;;;;;;9.93;7.53;;;11.10;40.50;;;;;;4932945;29;20039;-71
2022/03/11 11:38:29;;;;;;;7.85;6.60;;;11.00;41.10;;;;;;4934430;29;20055;-72
2022/03/11 11:40:57;;;;;;;14.80;8.80;;;11.00;40.50;;;;;;4938734;29;20040;-71
2022/03/11 11:43:31;;;;;;;12.57;8.02;;;10.90;40.10;;;;;;4937445;29;20474;-70
2022/03/11 11:46:08;;;;;;;12.25;7.78;;;11.00;40.40;;;;;;4939135;29;20040;-71
2022/03/11 11:48:45;;;;;;;15.75;6.95;;;11.00;39.60;;;;;;4939365;29;20039;-71
2022/03/11 11:51:13;;;;;;;14.40;7.40;;;11.00;40.40;;;;;;4938552;29;20043;-70
2022/03/11 11:53:42;;;;;;;12.48;8.27;;;11.00;39.90;;;;;;4937699;29;20055;-71
2022/03/11 11:56:46;;;;;;;10.48;7.93;;;10.80;40.80;;;;;;4938083;29;20458;-71
2022/03/11 11:59:18;;;;;;;10.13;7.40;;;11.20;40.40;;;;;;4938980;29;20047;-71
2022/03/11 12:01:59;;;;;;;12.25;7.93;;;11.40;40.10;;;;;;4939578;29;20492;-70
2022/03/11 12:04:38;;;;;;;12.35;8.38;;;11.20;39.90;;;;;;4939585;29;20048;-71
2022/03/11 12:07:10;;;;;;;10.88;7.60;;;11.20;40.50;;;;;;4913057;29;20055;-70
2022/03/11 12:09:39;;;;;;;10.70;7.55;;;11.20;40.30;;;;;;4934273;29;20548;-71
2022/03/11 12:12:08;;;;;;;12.73;6.80;;;11.10;40.10;;;;;;4939179;29;20040;-72
2022/03/11 12:14:53;;;;;;;11.00;8.02;;;11.20;39.90;;;;;;4936178;29;20052;-71
2022/03/11 12:17:39;;;;;;;11.93;7.68;;;11.30;40.40;;;;;;4934371;29;20474;-70
2022/03/11 12:20:33;;;;;;;11.82;7.18;;;11.40;40.10;;;;;;4934726;29;20043;-71
2022/03/11 12:23:17;;;;;;;11.68;7.43;;;11.50;40.10;;;;;;4934176;29;20027;-71
2022/03/11 12:25:45;;;;;;;14.20;7.75;;;11.60;39.90;;;;;;4938118;29;20083;-70
2022/03/11 12:28:31;;;;;;;11.10;8.73;;;11.80;40.30;;;;;;4940141;29;20035;-71
2022/03/11 12:31:05;;;;;;;9.52;7.25;;;12.00;39.70;;;;;;4936470;29;20389;-71
2022/03/11 12:33:33;;;;;;;15.27;7.88;;;11.90;39.90;;;;;;4936926;29;20052;-71
2022/03/11 12:36:01;;;;;;;9.80;7.57;;;12.00;39.40;;;;;;4938506;29;20034;-70
2022/03/11 12:38:34;;;;;;;10.48;7.28;;;12.00;39.60;;;;;;4939407;29;20058;-71
2022/03/11 12:41:07;;;;;;;9.80;8.38;;;12.20;39.90;;;;;;4938065;29;20036;-70
2022/03/11 12:43:34;;;;;;;13.60;8.50;;;12.40;39.20;;;;;;4936830;29;20032;-70
2022/03/11 12:46:01;;;;;;;11.05;7.55;;;12.10;39.30;;;;;;4939174;29;20384;-71
2022/03/11 12:48:31;;;;;;;15.82;7.72;;;12.10;40.00;;;;;;4939342;29;20035;-70
2022/03/11 12:50:58;;;;;;;7.00;6.38;;;12.20;39.10;;;;;;4933727;29;20046;-70
2022/03/11 12:53:25;;;;;;;9.07;7.35;;;12.10;39.30;;;;;;4936771;29;20051;-70